createdAt,value
2022-11-06T08:07:01.986Z,98312.00
2022-11-06T08:12:23.595Z,98296.00
2022-11-06T08:17:27.754Z,98303.00
2022-11-06T08:22:30.463Z,98310.00
2022-11-06T08:27:33.274Z,98286.00
2022-11-06T08:32:36.065Z,98290.00
2022-11-06T08:37:38.881Z,98279.00
2022-11-06T08:42:41.809Z,98272.00
2022-11-06T08:47:44.678Z,98266.00
2022-11-06T08:52:50.005Z,98258.00
2022-11-06T08:57:55.734Z,98253.00
2022-11-06T09:02:59.990Z,98245.00
2022-11-06T09:08:02.788Z,98252.00
2022-11-06T09:13:05.882Z,98237.00
2022-11-06T09:18:09.331Z,98227.00
2022-11-06T09:23:12.810Z,98210.00
2022-11-06T09:28:15.803Z,98217.00
2022-11-06T09:33:18.897Z,98212.00
2022-11-06T09:38:21.747Z,98201.00
2022-11-06T09:44:04.105Z,98195.00
2022-11-06T09:49:24.073Z,98197.00
2022-11-06T09:54:36.925Z,98190.00
2022-11-06T09:59:41.641Z,98199.00
2022-11-06T10:05:16.890Z,98192.00
2022-11-06T10:10:23.830Z,98178.00
2022-11-06T10:15:40.240Z,98191.00
2022-11-06T10:20:53.589Z,98177.00
2022-11-06T10:26:09.848Z,98175.00
2022-11-06T10:31:20.842Z,98163.00
2022-11-06T10:36:39.353Z,98168.00
2022-11-06T10:41:50.788Z,98164.00
2022-11-06T10:47:11.589Z,98156.00
2022-11-06T10:52:32.694Z,98148.00
2022-11-06T10:57:56.036Z,98132.00
2022-11-06T11:03:05.968Z,98146.00
2022-11-06T11:08:33.103Z,98135.00
2022-11-06T11:13:35.918Z,98121.00
2022-11-06T11:18:38.682Z,98120.00
2022-11-06T11:23:41.448Z,98112.00
2022-11-06T11:28:49.826Z,98103.00
2022-11-06T11:33:55.853Z,98103.00
2022-11-06T11:38:58.662Z,98094.00
2022-11-06T11:44:10.076Z,98091.00
2022-11-06T11:49:29.639Z,98090.00
2022-11-06T11:54:36.944Z,98088.00
2022-11-06T11:59:48.597Z,98078.00
2022-11-06T12:04:54.784Z,98073.00
2022-11-06T12:09:59.317Z,98062.00
2022-11-06T12:15:10.359Z,98045.00
2022-11-06T12:20:19.388Z,98029.00
2022-11-06T12:25:32.242Z,98024.00
2022-11-06T12:30:36.561Z,98008.00
2022-11-06T12:35:44.778Z,98017.00
2022-11-06T12:41:02.104Z,97997.00
2022-11-06T12:46:42.124Z,97997.00
2022-11-06T12:52:22.343Z,97997.00
2022-11-06T12:57:49.720Z,98008.00
2022-11-06T13:03:19.518Z,97994.00
2022-11-06T13:08:49.411Z,97993.00
2022-11-06T13:14:15.229Z,97980.00
2022-11-06T13:19:27.427Z,97976.00
2022-11-06T13:24:35.480Z,97976.00
2022-11-06T13:29:39.750Z,97974.00
2022-11-06T13:34:43.843Z,97959.00
2022-11-06T13:39:59.528Z,97955.00
2022-11-06T13:45:02.974Z,97953.00
2022-11-06T13:50:35.022Z,97942.00
2022-11-06T13:56:25.842Z,97939.00
2022-11-06T14:01:33.469Z,97933.00
2022-11-06T14:06:38.352Z,97932.00
2022-11-06T14:11:43.674Z,97922.00
2022-11-06T14:17:06.355Z,97921.00
2022-11-06T14:22:37.210Z,97901.00
2022-11-06T14:27:39.892Z,97901.00
2022-11-06T14:32:48.245Z,97893.00
2022-11-06T14:37:51.019Z,97891.00
2022-11-06T14:42:53.812Z,97879.00
2022-11-06T14:47:56.924Z,97874.00
2022-11-06T14:53:06.293Z,97882.00
2022-11-06T14:58:46.783Z,97874.00
2022-11-06T15:03:56.418Z,97869.00
2022-11-06T15:09:25.544Z,97863.00
2022-11-06T15:14:31.281Z,97868.00
2022-11-06T15:20:11.809Z,97884.00
2022-11-06T15:25:20.446Z,97884.00
2022-11-06T15:30:23.316Z,97870.00
2022-11-06T15:35:31.178Z,97860.00
2022-11-06T15:40:37.099Z,97865.00
2022-11-06T15:45:39.839Z,97856.00
2022-11-06T15:50:43.957Z,97849.00
2022-11-06T15:56:03.515Z,97847.00
2022-11-06T16:01:07.915Z,97841.00
2022-11-06T16:06:10.865Z,97848.00
2022-11-06T16:11:17.977Z,97843.00
2022-11-06T16:16:34.997Z,97844.00
2022-11-06T16:21:38.099Z,97819.00
2022-11-06T16:26:49.572Z,97814.00
2022-11-06T16:32:05.616Z,97814.00
2022-11-06T16:37:29.747Z,97811.00
2022-11-06T16:42:36.712Z,97811.00
2022-11-06T16:47:39.487Z,97816.00
2022-11-06T16:52:42.372Z,97804.00
2022-11-06T16:57:49.699Z,97803.00
2022-11-06T17:02:54.653Z,97805.00
2022-11-06T17:08:22.843Z,97806.00
2022-11-06T17:13:33.003Z,97791.00
2022-11-06T17:18:38.319Z,97790.00
2022-11-06T17:23:41.696Z,97793.00
2022-11-06T17:28:44.571Z,97797.00
2022-11-06T17:33:51.076Z,97781.00
2022-11-06T17:38:55.260Z,97779.00
2022-11-06T17:44:06.510Z,97769.00
2022-11-06T17:49:14.404Z,97759.00
2022-11-06T17:54:32.491Z,97760.00
2022-11-06T17:59:35.986Z,97754.00
2022-11-06T18:04:38.895Z,97746.00
2022-11-06T18:09:41.619Z,97733.00
2022-11-06T18:14:44.615Z,97728.00
2022-11-06T18:19:47.378Z,97726.00
2022-11-06T18:24:51.091Z,97728.00
2022-11-06T18:29:53.803Z,97728.00
2022-11-06T18:34:56.527Z,97730.00
2022-11-06T18:39:59.235Z,97738.00
2022-11-06T18:45:01.971Z,97728.00
2022-11-06T18:50:05.074Z,97729.00
2022-11-06T18:55:08.251Z,97742.00
2022-11-06T19:00:13.449Z,97735.00
2022-11-06T19:05:16.402Z,97727.00
2022-11-06T19:10:19.276Z,97740.00
2022-11-06T19:15:22.050Z,97748.00
2022-11-06T19:20:24.869Z,97737.00
2022-11-06T19:25:27.653Z,97747.00
2022-11-06T19:30:30.454Z,97753.00
2022-11-06T19:35:33.593Z,97749.00
2022-11-06T19:40:36.387Z,97741.00
2022-11-06T19:45:39.204Z,97735.00
2022-11-06T19:51:04.963Z,97732.00
2022-11-06T19:56:09.608Z,97729.00
2022-11-06T20:01:13.702Z,97727.00
2022-11-06T20:06:16.897Z,97731.00
2022-11-06T20:11:19.971Z,97724.00
2022-11-06T20:16:23.104Z,97719.00
2022-11-06T20:21:30.658Z,97722.00
2022-11-06T20:26:34.730Z,97715.00
2022-11-06T20:31:38.009Z,97721.00
2022-11-06T20:36:40.851Z,97721.00
2022-11-06T20:41:44.871Z,97719.00
2022-11-06T20:46:48.011Z,97725.00
2022-11-06T20:52:12.837Z,97727.00
2022-11-06T20:57:13.869Z,97723.00
2022-11-06T21:02:16.927Z,97713.00
2022-11-06T21:07:19.771Z,97702.00
2022-11-06T21:12:23.674Z,97697.00
2022-11-06T21:17:26.428Z,97681.00
2022-11-06T21:22:29.248Z,97679.00
2022-11-06T21:27:32.036Z,97676.00
2022-11-06T21:32:34.779Z,97684.00
2022-11-06T21:37:37.675Z,97647.00
2022-11-06T21:42:40.334Z,97641.00
2022-11-06T21:47:43.152Z,97645.00
2022-11-06T21:53:04.678Z,97623.00
2022-11-06T21:58:07.431Z,97630.00
2022-11-06T22:03:10.203Z,97635.00
2022-11-06T22:08:13.143Z,97645.00
2022-11-06T22:13:16.414Z,97644.00
2022-11-06T22:18:19.278Z,97640.00
2022-11-06T22:23:21.962Z,97639.00
2022-11-06T22:28:24.676Z,97655.00
2022-11-06T22:33:28.008Z,97654.00
2022-11-06T22:38:30.942Z,97657.00
2022-11-06T22:43:34.269Z,97662.00
2022-11-06T22:48:37.558Z,97658.00
2022-11-06T22:53:41.025Z,97659.00
2022-11-06T22:58:44.206Z,97671.00
2022-11-06T23:03:46.917Z,97678.00
2022-11-06T23:08:50.208Z,97681.00
2022-11-06T23:13:55.894Z,97694.00
2022-11-06T23:18:58.604Z,97687.00
2022-11-06T23:24:01.457Z,97691.00
2022-11-06T23:29:04.381Z,97696.00
2022-11-06T23:34:07.116Z,97692.00
2022-11-06T23:39:09.855Z,97677.00
2022-11-06T23:44:32.426Z,97679.00
2022-11-06T23:49:35.130Z,97686.00
2022-11-06T23:54:37.906Z,97676.00
2022-11-06T23:59:41.098Z,97666.00
